Time;durP1;ratioP1;P1;durP2;ratioP2;P2;SDS_P1;SDS_P2;PMS_P1;PMS_P2;Temp;Humidity;BMP_temperature;BMP_pressure;BME280_temperature;BME280_humidity;BME280_pressure;Samples;Min_cycle;Max_cycle;Signal;HPM_P1;HPM_P2
2022/04/11 00:00:50;;;;;;;4.25;1.65;;;;;;;;;;4992847;28;20073;-76
2022/04/11 00:03:17;;;;;;;3.72;1.60;;;;;;;;;;4991697;28;20052;-76
2022/04/11 00:05:43;;;;;;;5.80;1.70;;;;;;;;;;4992481;28;20054;-76
2022/04/11 00:08:10;;;;;;;5.30;1.70;;;;;;;;;;4991720;28;20050;-76
2022/04/11 00:10:36;;;;;;;5.03;1.58;;;;;;;;;;4992053;28;20047;-76
2022/04/11 00:13:03;;;;;;;5.22;1.95;;;;;;;;;;4992863;28;20429;-76
2022/04/11 00:15:33;;;;;;;4.63;1.70;;;;;;;;;;4995864;28;20046;-76
2022/04/11 00:18:00;;;;;;;4.80;1.60;;;;;;;;;;4994710;28;20061;-76
2022/04/11 00:20:26;;;;;;;5.10;1.58;;;;;;;;;;4996266;28;20062;-76
2022/04/11 00:22:53;;;;;;;5.40;1.70;;;;;;;;;;4995029;28;20050;-76
2022/04/11 00:25:19;;;;;;;5.63;1.63;;;;;;;;;;4977465;28;20176;-76
2022/04/11 00:27:45;;;;;;;4.65;1.50;;;;;;;;;;4986951;28;20050;-77
2022/04/11 00:30:12;;;;;;;4.35;1.60;;;;;;;;;;4995327;28;20050;-76
2022/04/11 00:32:40;;;;;;;4.22;1.63;;;;;;;;;;4993484;28;20050;-77
2022/04/11 00:35:08;;;;;;;4.40;1.70;;;;;;;;;;4995679;28;20077;-77
2022/04/11 00:37:34;;;;;;;5.07;1.40;;;;;;;;;;4995692;28;20144;-77
2022/04/11 00:40:01;;;;;;;3.50;1.50;;;;;;;;;;4995634;28;20061;-77
2022/04/11 00:42:28;;;;;;;3.72;1.40;;;;;;;;;;4995261;28;20042;-77
2022/04/11 00:44:54;;;;;;;4.07;1.50;;;;;;;;;;4995387;28;20042;-77
2022/04/11 00:47:20;;;;;;;3.50;1.67;;;;;;;;;;4995237;28;20053;-77
2022/04/11 00:49:48;;;;;;;3.45;1.55;;;;;;;;;;4995323;28;20057;-77
2022/04/11 00:52:16;;;;;;;3.22;1.45;;;;;;;;;;4994234;28;20049;-77
2022/04/11 00:54:42;;;;;;;4.03;1.55;;;;;;;;;;4994571;28;20051;-77
2022/04/11 00:57:10;;;;;;;3.63;1.42;;;;;;;;;;4994602;28;20046;-77
2022/04/11 00:59:37;;;;;;;4.35;1.50;;;;;;;;;;4994777;28;20062;-77
2022/04/11 01:02:05;;;;;;;5.03;1.50;;;;;;;;;;4994591;28;20057;-77
2022/04/11 01:04:31;;;;;;;4.95;1.60;;;;;;;;;;4994008;28;20601;-77
2022/04/11 01:06:59;;;;;;;4.88;1.50;;;;;;;;;;4994349;28;20417;-77
2022/04/11 01:09:26;;;;;;;2.88;1.50;;;;;;;;;;4994301;28;20047;-77
2022/04/11 01:11:53;;;;;;;4.18;1.40;;;;;;;;;;4994864;28;20054;-77
2022/04/11 01:14:20;;;;;;;4.78;1.50;;;;;;;;;;4994224;28;20050;-77
2022/04/11 01:16:49;;;;;;;3.47;1.45;;;;;;;;;;4994733;28;20498;-77
2022/04/11 01:19:15;;;;;;;5.47;1.50;;;;;;;;;;4994689;28;20054;-76
2022/04/11 01:21:43;;;;;;;4.57;1.50;;;;;;;;;;4994839;28;20518;-77
2022/04/11 01:24:09;;;;;;;4.80;1.60;;;;;;;;;;4994142;28;20058;-77
2022/04/11 01:26:36;;;;;;;4.18;1.30;;;;;;;;;;4994728;28;20046;-77
2022/04/11 01:29:04;;;;;;;4.32;1.50;;;;;;;;;;4994799;28;20052;-77
2022/04/11 01:31:30;;;;;;;4.30;1.40;;;;;;;;;;4994927;28;20050;-77
2022/04/11 01:33:56;;;;;;;4.75;1.50;;;;;;;;;;4993982;28;20414;-76
2022/04/11 01:36:23;;;;;;;3.92;1.60;;;;;;;;;;4994213;28;20062;-77
2022/04/11 01:38:50;;;;;;;2.80;1.23;;;;;;;;;;4994578;28;20046;-77
2022/04/11 01:41:17;;;;;;;2.60;1.20;;;;;;;;;;4975064;28;20062;-77
2022/04/11 01:43:45;;;;;;;3.38;1.27;;;;;;;;;;4979088;28;20050;-77
2022/04/11 01:46:11;;;;;;;;;;;;;;;;;;4994747;28;20046;-77
2022/04/11 01:48:37;;;;;;;4.35;1.38;;;;;;;;;;4994536;28;19921;-77
2022/04/11 01:51:04;;;;;;;4.00;1.40;;;;;;;;;;4994231;28;20050;-76
2022/04/11 01:53:30;;;;;;;3.05;1.40;;;;;;;;;;4993583;28;20056;-76
2022/04/11 01:55:58;;;;;;;3.15;1.45;;;;;;;;;;4994256;28;20387;-77
2022/04/11 01:58:24;;;;;;;;;;;;;;;;;;4994096;28;20050;-77
2022/04/11 02:00:51;;;;;;;4.40;1.50;;;;;;;;;;4994069;28;19921;-76
2022/04/11 02:03:17;;;;;;;4.72;1.27;;;;;;;;;;4993150;28;20077;-76
2022/04/11 02:05:43;;;;;;;5.07;1.50;;;;;;;;;;4994048;28;20047;-78
2022/04/11 02:08:10;;;;;;;3.10;1.30;;;;;;;;;;4993738;28;20053;-77
2022/04/11 02:10:37;;;;;;;3.85;1.33;;;;;;;;;;4993984;28;20100;-77
2022/04/11 02:13:06;;;;;;;3.03;1.30;;;;;;;;;;4993362;28;20054;-77
2022/04/11 02:15:33;;;;;;;4.15;1.50;;;;;;;;;;4993447;28;20050;-76
2022/04/11 02:17:59;;;;;;;3.30;1.50;;;;;;;;;;4993275;28;20054;-77
2022/04/11 02:20:26;;;;;;;2.83;1.27;;;;;;;;;;4993623;28;20046;-77
2022/04/11 02:22:53;;;;;;;2.50;1.30;;;;;;;;;;4993117;28;20136;-77
2022/04/11 02:25:20;;;;;;;4.95;1.50;;;;;;;;;;4993525;28;20054;-76
2022/04/11 02:27:47;;;;;;;3.40;1.42;;;;;;;;;;4992743;28;20062;-77
2022/04/11 02:30:16;;;;;;;3.38;1.20;;;;;;;;;;4993726;28;20061;-77
2022/04/11 02:32:42;;;;;;;2.75;1.20;;;;;;;;;;4973462;28;20054;-76
2022/04/11 02:35:09;;;;;;;3.22;1.20;;;;;;;;;;4974135;28;20058;-77
2022/04/11 02:37:35;;;;;;;4.57;1.30;;;;;;;;;;4983325;28;20560;-77
2022/04/11 02:40:02;;;;;;;3.08;1.27;;;;;;;;;;4993551;28;20054;-76
2022/04/11 02:42:29;;;;;;;3.15;1.13;;;;;;;;;;4992516;28;20494;-76
2022/04/11 02:44:56;;;;;;;2.33;1.10;;;;;;;;;;4993117;28;20046;-77
2022/04/11 02:47:24;;;;;;;2.80;1.15;;;;;;;;;;4993093;28;20054;-79
2022/04/11 02:49:50;;;;;;;;;;;;;;;;;;4994045;28;20053;-76
2022/04/11 02:52:17;;;;;;;4.03;1.30;;;;;;;;;;4992857;28;19929;-76
2022/04/11 02:54:43;;;;;;;3.85;1.40;;;;;;;;;;4992831;28;20056;-77
2022/04/11 02:57:09;;;;;;;4.03;1.35;;;;;;;;;;4992985;28;20050;-76
2022/04/11 02:59:36;;;;;;;1.92;1.10;;;;;;;;;;4993066;28;20060;-77
2022/04/11 03:02:03;;;;;;;2.67;1.20;;;;;;;;;;4992975;28;20436;-77
2022/04/11 03:04:31;;;;;;;3.97;1.50;;;;;;;;;;4991725;28;20050;-77
2022/04/11 03:06:57;;;;;;;3.63;1.17;;;;;;;;;;4992764;28;20141;-76
2022/04/11 03:09:24;;;;;;;2.95;1.20;;;;;;;;;;4993342;28;20056;-76
2022/04/11 03:11:50;;;;;;;3.88;1.30;;;;;;;;;;4992298;28;20050;-76
2022/04/11 03:14:16;;;;;;;3.53;1.17;;;;;;;;;;4992444;28;20069;-76
2022/04/11 03:16:43;;;;;;;2.78;1.15;;;;;;;;;;4992384;28;20050;-76
2022/04/11 03:19:09;;;;;;;2.95;1.40;;;;;;;;;;4992937;28;20050;-76
2022/04/11 03:21:37;;;;;;;2.78;1.10;;;;;;;;;;4992072;28;20051;-76
2022/04/11 03:24:03;;;;;;;4.60;1.30;;;;;;;;;;4992819;28;20058;-77
2022/04/11 03:26:30;;;;;;;2.65;1.30;;;;;;;;;;4993411;28;20046;-76
2022/04/11 03:28:56;;;;;;;3.30;1.17;;;;;;;;;;4992884;28;20068;-77
2022/04/11 03:31:22;;;;;;;3.95;1.20;;;;;;;;;;4992317;28;20502;-77
2022/04/11 03:33:49;;;;;;;2.55;1.20;;;;;;;;;;4992430;28;20046;-77
2022/04/11 03:36:15;;;;;;;4.45;1.30;;;;;;;;;;4992813;28;20057;-76
2022/04/11 03:38:43;;;;;;;2.67;1.25;;;;;;;;;;4992577;28;20053;-77
2022/04/11 03:41:09;;;;;;;2.30;1.20;;;;;;;;;;4992621;28;20046;-76
2022/04/11 03:43:35;;;;;;;2.42;1.08;;;;;;;;;;4991900;28;20457;-76
2022/04/11 03:46:02;;;;;;;3.13;1.20;;;;;;;;;;4992656;28;20486;-77
2022/04/11 03:48:28;;;;;;;2.65;1.05;;;;;;;;;;4995275;28;20457;-76
2022/04/11 03:50:54;;;;;;;2.92;1.40;;;;;;;;;;4996136;28;20076;-77
2022/04/11 03:53:21;;;;;;;2.63;1.20;;;;;;;;;;4995901;28;20046;-77
2022/04/11 03:55:48;;;;;;;2.58;1.27;;;;;;;;;;4996035;28;20668;-77
2022/04/11 03:58:15;;;;;;;2.83;1.20;;;;;;;;;;4996754;28;20054;-77
2022/04/11 04:00:41;;;;;;;2.00;1.13;;;;;;;;;;4996349;28;20052;-76
2022/04/11 04:03:09;;;;;;;3.33;1.30;;;;;;;;;;4995365;28;20064;-77
2022/04/11 04:05:39;;;;;;;2.33;1.30;;;;;;;;;;4996340;28;20050;-76
2022/04/11 04:08:06;;;;;;;2.38;1.10;;;;;;;;;;4996062;28;20047;-76
2022/04/11 04:10:32;;;;;;;2.95;1.20;;;;;;;;;;4996528;28;20054;-76
2022/04/11 04:13:00;;;;;;;3.70;1.33;;;;;;;;;;4995933;28;20052;-77
2022/04/11 04:15:26;;;;;;;;;;;;;;;;;;4993522;28;20050;-76
2022/04/11 04:17:53;;;;;;;3.67;1.30;;;;;;;;;;4990992;28;19926;-76
2022/04/11 04:20:19;;;;;;;2.40;1.10;;;;;;;;;;4996749;28;20072;-76
2022/04/11 04:22:46;;;;;;;2.50;1.30;;;;;;;;;;4996343;28;20065;-76
2022/04/11 04:25:12;;;;;;;2.53;1.10;;;;;;;;;;4996983;28;20046;-76
2022/04/11 04:27:38;;;;;;;3.88;1.20;;;;;;;;;;4996821;28;20056;-76
2022/04/11 04:30:07;;;;;;;2.65;1.10;;;;;;;;;;4996886;28;20050;-76
2022/04/11 04:32:33;;;;;;;3.38;1.20;;;;;;;;;;4996356;28;20057;-76
2022/04/11 04:35:01;;;;;;;3.13;1.35;;;;;;;;;;4996842;28;20050;-76
2022/04/11 04:37:27;;;;;;;3.70;1.20;;;;;;;;;;4996612;28;20407;-77
2022/04/11 04:39:53;;;;;;;2.47;1.10;;;;;;;;;;4996886;28;20058;-76
2022/04/11 04:42:20;;;;;;;2.80;1.20;;;;;;;;;;4996711;28;20050;-76
2022/04/11 04:44:47;;;;;;;2.28;1.15;;;;;;;;;;4995895;28;20051;-76
2022/04/11 04:47:15;;;;;;;3.03;1.20;;;;;;;;;;4996157;28;20105;-76
2022/04/11 04:49:42;;;;;;;4.03;1.30;;;;;;;;;;4996323;28;20134;-76
2022/04/11 04:52:08;;;;;;;3.63;1.30;;;;;;;;;;4996114;28;20058;-76
2022/04/11 04:54:35;;;;;;;2.80;1.10;;;;;;;;;;4994842;28;20050;-75
2022/04/11 04:57:01;;;;;;;4.00;1.30;;;;;;;;;;4994791;28;20513;-77
2022/04/11 04:59:28;;;;;;;4.85;1.30;;;;;;;;;;4994025;28;20061;-77
2022/04/11 05:01:55;;;;;;;2.53;1.15;;;;;;;;;;4995206;28;20145;-77
2022/04/11 05:04:22;;;;;;;2.83;1.30;;;;;;;;;;4994525;28;20422;-76
2022/04/11 05:06:49;;;;;;;5.18;1.40;;;;;;;;;;4987765;28;20047;-76
2022/04/11 05:09:15;;;;;;;2.58;1.30;;;;;;;;;;4994734;28;20054;-77
2022/04/11 05:11:42;;;;;;;3.72;1.33;;;;;;;;;;4995023;28;20502;-77
2022/04/11 05:14:08;;;;;;;2.55;1.13;;;;;;;;;;4994479;28;20057;-76
2022/04/11 05:16:34;;;;;;;3.40;1.38;;;;;;;;;;4995043;28;20050;-77
2022/04/11 05:19:02;;;;;;;8.30;3.53;;;;;;;;;;4994642;28;20754;-77
2022/04/11 05:21:28;;;;;;;;;;;;;;;;;;4995459;28;20057;-77
2022/04/11 05:23:56;;;;;;;11.50;6.35;;;;;;;;;;4993813;28;19922;-77
2022/04/11 05:26:22;;;;;;;15.85;10.65;;;;;;;;;;4995004;28;20046;-77
2022/04/11 05:28:49;;;;;;;19.25;12.52;;;;;;;;;;4993621;28;20054;-76
2022/04/11 05:31:15;;;;;;;16.63;12.55;;;;;;;;;;4997091;28;20046;-77
2022/04/11 05:33:42;;;;;;;17.75;12.63;;;;;;;;;;4993269;28;20058;-77
2022/04/11 05:36:08;;;;;;;17.85;12.60;;;;;;;;;;4993920;28;20046;-77
2022/04/11 05:38:34;;;;;;;17.00;12.35;;;;;;;;;;4995065;28;20416;-77
2022/04/11 05:41:02;;;;;;;16.65;11.43;;;;;;;;;;4994374;28;20421;-77
2022/04/11 05:43:28;;;;;;;15.80;11.25;;;;;;;;;;4993315;28;20050;-77
2022/04/11 05:45:55;;;;;;;16.73;11.50;;;;;;;;;;4993160;28;20524;-77
2022/04/11 05:48:21;;;;;;;15.20;10.63;;;;;;;;;;4993913;28;20050;-76
2022/04/11 05:50:47;;;;;;;16.30;10.10;;;;;;;;;;4994515;28;20046;-76
2022/04/11 05:53:14;;;;;;;16.17;10.60;;;;;;;;;;4993320;28;20088;-76
2022/04/11 05:55:40;;;;;;;13.98;9.57;;;;;;;;;;4994064;28;20145;-76
2022/04/11 05:58:08;;;;;;;14.82;9.73;;;;;;;;;;4993761;28;20137;-76
2022/04/11 06:00:34;;;;;;;14.07;9.32;;;;;;;;;;4993800;28;20054;-75
2022/04/11 06:03:00;;;;;;;17.60;8.82;;;;;;;;;;4992780;28;20051;-77
2022/04/11 06:05:27;;;;;;;16.25;8.82;;;;;;;;;;4981057;28;20047;-79
2022/04/11 06:07:53;;;;;;;23.00;8.02;;;;;;;;;;4992830;28;20050;-78
2022/04/11 06:10:19;;;;;;;15.82;8.07;;;;;;;;;;4989443;28;20054;-76
2022/04/11 06:12:46;;;;;;;15.57;7.82;;;;;;;;;;4960387;28;20059;-78
2022/04/11 06:15:17;;;;;;;13.88;7.03;;;;;;;;;;4982262;28;20058;-79
2022/04/11 06:17:44;;;;;;;13.27;6.85;;;;;;;;;;4985209;28;20092;-80
2022/04/11 06:20:10;;;;;;;13.77;6.75;;;;;;;;;;4982389;28;20430;-79
2022/04/11 06:22:38;;;;;;;12.82;6.68;;;;;;;;;;4974392;28;20081;-79
2022/04/11 06:25:05;;;;;;;15.25;6.40;;;;;;;;;;4975192;28;20073;-79
2022/04/11 06:27:32;;;;;;;10.98;5.90;;;;;;;;;;4974196;28;20053;-79
2022/04/11 06:29:59;;;;;;;10.75;5.32;;;;;;;;;;4974821;28;20455;-79
2022/04/11 06:32:28;;;;;;;11.05;5.22;;;;;;;;;;4974267;28;20050;-79
2022/04/11 06:34:54;;;;;;;12.07;5.25;;;;;;;;;;4974547;28;20101;-79
2022/04/11 06:37:21;;;;;;;11.55;5.13;;;;;;;;;;4974643;28;20051;-79
2022/04/11 06:39:47;;;;;;;10.93;5.10;;;;;;;;;;4974455;28;20200;-80
2022/04/11 06:42:13;;;;;;;10.00;4.57;;;;;;;;;;4973832;28;20502;-79
2022/04/11 06:44:40;;;;;;;12.13;4.72;;;;;;;;;;4973709;28;20422;-79
2022/04/11 06:47:08;;;;;;;12.68;4.55;;;;;;;;;;4974781;28;20042;-79
2022/04/11 06:49:36;;;;;;;8.75;4.13;;;;;;;;;;4973782;28;20047;-79
2022/04/11 06:52:03;;;;;;;10.98;4.70;;;;;;;;;;4974010;28;20407;-79
2022/04/11 06:54:30;;;;;;;8.90;4.30;;;;;;;;;;4974029;28;20517;-79
2022/04/11 06:56:57;;;;;;;10.40;3.85;;;;;;;;;;4973817;28;20050;-78
2022/04/11 06:59:23;;;;;;;8.38;3.95;;;;;;;;;;4973950;28;20065;-79
2022/04/11 07:01:51;;;;;;;9.88;3.83;;;;;;;;;;4974424;28;20054;-79
2022/04/11 07:04:18;;;;;;;;;;;;;;;;;;4974243;28;20526;-80
2022/04/11 07:06:45;;;;;;;8.50;3.63;;;;;;;;;;4973793;28;20012;-79
2022/04/11 07:09:12;;;;;;;9.50;3.28;;;;;;;;;;4974054;28;20050;-79
2022/04/11 07:11:38;;;;;;;8.07;3.13;;;;;;;;;;4974085;28;20050;-79
2022/04/11 07:14:05;;;;;;;9.73;3.20;;;;;;;;;;4973856;28;21662;-79
2022/04/11 07:16:31;;;;;;;7.82;3.15;;;;;;;;;;4973618;28;20053;-79
2022/04/11 07:18:58;;;;;;;7.57;3.00;;;;;;;;;;4973794;28;20069;-79
2022/04/11 07:21:24;;;;;;;8.35;3.00;;;;;;;;;;4974158;28;20055;-79
2022/04/11 07:23:52;;;;;;;7.43;3.00;;;;;;;;;;4973443;28;20150;-79
2022/04/11 07:26:18;;;;;;;7.72;2.80;;;;;;;;;;4973870;28;20051;-79
2022/04/11 07:28:46;;;;;;;6.85;2.65;;;;;;;;;;4973182;28;20051;-79
2022/04/11 07:31:12;;;;;;;7.78;2.75;;;;;;;;;;4973777;28;20053;-79
2022/04/11 07:33:38;;;;;;;7.32;2.75;;;;;;;;;;4973890;28;20047;-81
2022/04/11 07:36:05;;;;;;;6.15;2.67;;;;;;;;;;4974088;28;20050;-80
2022/04/11 07:38:31;;;;;;;6.85;2.60;;;;;;;;;;4973792;28;20053;-79
2022/04/11 07:40:59;;;;;;;6.68;2.13;;;;;;;;;;4974257;28;20051;-79
2022/04/11 07:43:25;;;;;;;4.93;2.30;;;;;;;;;;4973739;28;20078;-79
2022/04/11 07:45:52;;;;;;;7.47;2.42;;;;;;;;;;4974137;28;20057;-80
2022/04/11 07:48:18;;;;;;;6.05;2.30;;;;;;;;;;4974144;28;20066;-79
2022/04/11 07:50:44;;;;;;;4.93;2.20;;;;;;;;;;4975023;28;20051;-80
2022/04/11 07:53:11;;;;;;;6.28;2.28;;;;;;;;;;4974166;28;20057;-80
2022/04/11 07:55:37;;;;;;;5.68;2.10;;;;;;;;;;4973316;28;20054;-80
2022/04/11 07:58:05;;;;;;;5.57;2.10;;;;;;;;;;4974253;28;20047;-80
2022/04/11 08:00:31;;;;;;;4.38;1.90;;;;;;;;;;4974527;28;20109;-80
2022/04/11 08:02:58;;;;;;;5.63;2.10;;;;;;;;;;4973602;28;20047;-79
2022/04/11 08:05:24;;;;;;;6.47;2.20;;;;;;;;;;4974298;28;20479;-80
2022/04/11 08:07:51;;;;;;;5.63;1.80;;;;;;;;;;4974395;28;20129;-79
2022/04/11 08:10:18;;;;;;;5.63;2.00;;;;;;;;;;4973940;28;20503;-78
2022/04/11 08:12:50;;;;;;;5.05;1.92;;;;;;;;;;4974216;28;20051;-79
2022/04/11 08:15:18;;;;;;;6.40;2.00;;;;;;;;;;4974526;28;20058;-81
2022/04/11 08:17:44;;;;;;;4.88;1.90;;;;;;;;;;4974291;28;20043;-80
2022/04/11 08:20:11;;;;;;;4.68;1.60;;;;;;;;;;4974194;28;20101;-79
2022/04/11 08:22:37;;;;;;;4.28;1.88;;;;;;;;;;4974281;28;19930;-79
2022/04/11 08:25:04;;;;;;;5.93;2.00;;;;;;;;;;4974193;28;20239;-79
2022/04/11 08:27:30;;;;;;;5.90;1.70;;;;;;;;;;4973781;28;20057;-80
2022/04/11 08:29:56;;;;;;;6.00;1.83;;;;;;;;;;4974299;28;20055;-79
2022/04/11 08:32:24;;;;;;;4.25;1.70;;;;;;;;;;4974568;28;20055;-79
2022/04/11 08:34:50;;;;;;;3.60;1.60;;;;;;;;;;4974554;28;20426;-80
2022/04/11 08:37:17;;;;;;;5.38;1.80;;;;;;;;;;4977058;28;20047;-79
2022/04/11 08:39:43;;;;;;;;;;;;;;;;;;4977176;28;20414;-79
2022/04/11 08:42:09;;;;;;;;;;;;;;;;;;4977443;28;19928;-79
2022/04/11 08:44:35;;;;;;;;;;;;;;;;;;4977099;28;19926;-79
2022/04/11 08:47:01;;;;;;;;;;;;;;;;;;4978222;28;19922;-80
2022/04/11 08:49:28;;;;;;;;;;;;;;;;;;4977444;28;19926;-79
2022/04/11 08:51:54;;;;;;;;;;;;;;;;;;4977231;28;19922;-81
2022/04/11 08:54:20;;;;;;;;;;;;;;;;;;4976433;28;19922;-80
2022/04/11 08:56:48;;;;;;;3.20;1.30;;;;;;;;;;4976658;28;20389;-80
2022/04/11 08:59:15;;;;;;;5.65;1.45;;;;;;;;;;4976620;28;20051;-79
2022/04/11 09:01:41;;;;;;;4.25;1.40;;;;;;;;;;4976205;28;20102;-80
2022/04/11 09:04:07;;;;;;;;;;;;;;;;;;4976314;28;20046;-80
2022/04/11 09:06:35;;;;;;;;;;;;;;;;;;4977799;28;20298;-80
2022/04/11 09:09:02;;;;;;;;;;;;;;;;;;4978292;28;19922;-80
2022/04/11 09:11:30;;;;;;;4.40;1.67;;;;;;;;;;4977337;28;19922;-80
2022/04/11 09:13:56;;;;;;;;;;;;;;;;;;4961864;28;20388;-80
2022/04/11 09:16:22;;;;;;;;;;;;;;;;;;4978089;28;19929;-80
2022/04/11 09:18:52;;;;;;;3.30;1.30;;;;;;;;;;4977462;28;19926;-80
2022/04/11 09:21:18;;;;;;;2.80;1.40;;;;;;;;;;4978517;28;19930;-81
2022/04/11 09:23:45;;;;;;;;;;;;;;;;;;4977595;28;20050;-82
2022/04/11 09:26:21;;;;;;;4.20;1.50;;;;;;;;;;4976007;28;20436;-80
2022/04/11 09:28:47;;;;;;;;;;;;;;;;;;4980216;28;20053;-81
2022/04/11 09:31:21;;;;;;;3.63;1.40;;;;;;;;;;4981528;28;19936;-81
2022/04/11 09:33:47;;;;;;;2.55;1.27;;;;;;;;;;4980678;28;20134;-81
2022/04/11 09:36:16;;;;;;;4.05;1.30;;;;;;;;;;4981191;28;20109;-80
2022/04/11 09:38:42;;;;;;;3.30;1.20;;;;;;;;;;4978177;28;20046;-80
2022/04/11 09:41:09;;;;;;;4.97;1.30;;;;;;;;;;4977325;28;20471;-81
2022/04/11 09:43:35;;;;;;;;;;;;;;;;;;4976168;28;20057;-80
2022/04/11 09:46:02;;;;;;;4.18;1.40;;;;;;;;;;4977702;28;19930;-79
2022/04/11 09:48:28;;;;;;;;;;;;;;;;;;4977821;28;20077;-81
2022/04/11 09:50:55;;;;;;;;;;;;;;;;;;4977635;28;19926;-79
2022/04/11 09:53:21;;;;;;;;;;;;;;;;;;4975893;28;19929;-79
2022/04/11 09:55:47;;;;;;;;;;;;;;;;;;4976493;28;19925;-79
2022/04/11 10:00:41;;;;;;;;;;;;;;;;;;4965121;28;20278;-79
2022/04/11 10:03:07;;;;;;;;;;;;;;;;;;4964915;28;19934;-79
2022/04/11 10:05:35;;;;;;;2.20;1.20;;;;;;;;;;4969384;28;19922;-79
2022/04/11 10:08:03;;;;;;;3.15;1.20;;;;;;;;;;4974044;28;20046;-79
2022/04/11 10:10:29;;;;;;;5.50;1.50;;;;;;;;;;4955565;28;20058;-79
2022/04/11 10:12:56;;;;;;;3.30;1.40;;;;;;;;;;4954172;28;20055;-79
2022/04/11 10:15:23;;;;;;;;;;;;;;;;;;4955162;29;19961;-79
2022/04/11 10:17:49;;;;;;;;;;;;;;;;;;4954415;28;20327;-79
2022/04/11 10:20:15;;;;;;;;;;;;;;;;;;4954685;28;19922;-79
2022/04/11 10:22:41;;;;;;;;;;;;;;;;;;4954906;28;19923;-79
2022/04/11 10:25:07;;;;;;;;;;;;;;;;;;4955744;28;19929;-79
2022/04/11 10:27:33;;;;;;;;;;;;;;;;;;4954858;28;20405;-79
2022/04/11 10:30:00;;;;;;;;;;;;;;;;;;4954504;28;19923;-79
2022/04/11 10:32:26;;;;;;;;;;;;;;;;;;4943975;28;19933;-79
2022/04/11 10:34:53;;;;;;;;;;;;;;;;;;4953981;28;20449;-82
2022/04/11 10:37:20;;;;;;;;;;;;;;;;;;4954605;29;19945;-79
2022/04/11 10:39:48;;;;;;;3.22;1.35;;;;;;;;;;4954592;28;19970;-79
2022/04/11 10:42:18;;;;;;;3.78;1.30;;;;;;;;;;4947455;29;20502;-79
2022/04/11 10:44:45;;;;;;;4.90;1.40;;;;;;;;;;4943522;29;20055;-78
2022/04/11 10:47:22;;;;;;;4.50;1.35;;;;;;;;;;4949197;29;20086;-79
2022/04/11 10:50:07;;;;;;;4.18;1.33;;;;;;;;;;4951473;28;20047;-80
2022/04/11 10:52:35;;;;;;;4.20;1.27;;;;;;;;;;4953413;29;20522;-79
2022/04/11 10:55:07;;;;;;;3.60;1.40;;;;;;;;;;4953379;29;20055;-80
2022/04/11 10:57:34;;;;;;;4.30;1.50;;;;;;;;;;4947589;28;20048;-80
2022/04/11 11:00:07;;;;;;;4.28;1.42;;;;;;;;;;4950061;28;20054;-80
2022/04/11 11:02:52;;;;;;;3.08;1.33;;;;;;;;;;4948312;29;20047;-79
2022/04/11 11:05:25;;;;;;;3.58;1.40;;;;;;;;;;4940896;29;20052;-80
2022/04/11 11:08:24;;;;;;;4.40;1.40;;;;;;;;;;4943861;29;20054;-80
2022/04/11 11:10:52;;;;;;;3.58;1.48;;;;;;;;;;4953553;29;20061;-79
2022/04/11 11:13:27;;;;;;;4.40;1.40;;;;;;;;;;4953027;29;20059;-79
2022/04/11 11:15:53;;;;;;;6.80;1.55;;;;;;;;;;4944933;29;20060;-80
2022/04/11 11:18:20;;;;;;;7.68;1.60;;;;;;;;;;4943670;28;20050;-80
2022/04/11 11:20:53;;;;;;;4.53;1.45;;;;;;;;;;4953302;29;20133;-79
2022/04/11 11:23:23;;;;;;;3.90;1.50;;;;;;;;;;4952584;29;20066;-80
2022/04/11 11:25:51;;;;;;;4.22;1.63;;;;;;;;;;4953521;28;20047;-79
2022/04/11 11:28:17;;;;;;;4.63;1.40;;;;;;;;;;4950939;29;20518;-80
2022/04/11 11:30:44;;;;;;;4.03;1.50;;;;;;;;;;4940452;29;20411;-79
2022/04/11 11:33:13;;;;;;;3.03;1.45;;;;;;;;;;4951952;29;20514;-80
2022/04/11 11:35:46;;;;;;;3.58;1.40;;;;;;;;;;4952216;29;20051;-79
2022/04/11 11:38:12;;;;;;;4.68;1.40;;;;;;;;;;4952884;28;20052;-80
2022/04/11 11:40:43;;;;;;;4.72;1.42;;;;;;;;;;4953420;29;20051;-79
2022/04/11 11:43:13;;;;;;;4.45;1.38;;;;;;;;;;4951623;29;20043;-79
2022/04/11 11:45:41;;;;;;;7.72;1.60;;;;;;;;;;4940994;29;20470;-78
2022/04/11 11:48:23;;;;;;;4.75;1.35;;;;;;;;;;4952676;28;20047;-78
2022/04/11 11:50:50;;;;;;;3.83;1.27;;;;;;;;;;4953399;29;20058;-78
2022/04/11 11:53:16;;;;;;;4.53;1.25;;;;;;;;;;4951943;29;20051;-78
2022/04/11 11:55:56;;;;;;;5.00;1.38;;;;;;;;;;4953520;28;20118;-78
2022/04/11 11:58:33;;;;;;;3.50;1.20;;;;;;;;;;4951281;28;20134;-78
2022/04/11 12:00:59;;;;;;;2.45;1.20;;;;;;;;;;4948679;28;20122;-81
2022/04/11 12:06:09;;;;;;;5.03;1.25;;;;;;;;;;4938664;29;20066;-79
2022/04/11 12:08:36;;;;;;;4.43;1.42;;;;;;;;;;4954960;28;20102;-76
2022/04/11 12:11:02;;;;;;;5.97;1.42;;;;;;;;;;4956380;29;20570;-76
2022/04/11 12:13:30;;;;;;;5.15;1.60;;;;;;;;;;4955642;29;20051;-76
2022/04/11 12:16:06;;;;;;;5.65;1.45;;;;;;;;;;4954735;28;20051;-76
2022/04/11 12:18:46;;;;;;;4.13;1.50;;;;;;;;;;4943351;28;20047;-75
2022/04/11 12:21:13;;;;;;;5.03;1.70;;;;;;;;;;4957170;29;20051;-76
2022/04/11 12:23:43;;;;;;;3.30;1.40;;;;;;;;;;4955865;29;20519;-76
2022/04/11 12:26:10;;;;;;;4.47;1.48;;;;;;;;;;4957021;28;20517;-76
2022/04/11 12:28:38;;;;;;;5.22;1.55;;;;;;;;;;4938331;28;20047;-76
2022/04/11 12:31:12;;;;;;;3.95;1.60;;;;;;;;;;4937244;29;20058;-76
2022/04/11 12:33:38;;;;;;;5.05;1.77;;;;;;;;;;4955640;29;20051;-76
2022/04/11 12:36:09;;;;;;;4.50;1.50;;;;;;;;;;4956825;29;20400;-76
2022/04/11 12:38:42;;;;;;;4.60;1.60;;;;;;;;;;4956140;28;20058;-76
2022/04/11 12:41:23;;;;;;;4.63;1.50;;;;;;;;;;4956748;28;20051;-76
2022/04/11 12:43:49;;;;;;;;;;;;;;;;;;4955448;28;20049;-76
2022/04/11 12:46:23;;;;;;;3.20;1.40;;;;;;;;;;4956247;28;19928;-76
2022/04/11 12:48:56;;;;;;;5.38;1.70;;;;;;;;;;4956511;28;20054;-76
2022/04/11 12:51:22;;;;;;;5.97;1.70;;;;;;;;;;4955815;29;20055;-77
2022/04/11 12:53:48;;;;;;;6.65;1.45;;;;;;;;;;4956104;29;20063;-76
2022/04/11 12:56:15;;;;;;;4.75;1.63;;;;;;;;;;4955593;29;20062;-76
2022/04/11 12:58:41;;;;;;;7.63;1.80;;;;;;;;;;4954981;28;20051;-77
2022/04/11 13:01:07;;;;;;;6.30;1.80;;;;;;;;;;4955875;29;20057;-77
2022/04/11 13:03:35;;;;;;;3.33;1.60;;;;;;;;;;4955836;28;20051;-76
2022/04/11 13:06:04;;;;;;;6.10;1.50;;;;;;;;;;4955888;29;20055;-76
2022/04/11 13:08:30;;;;;;;3.40;1.63;;;;;;;;;;4954098;28;20057;-76
2022/04/11 13:10:58;;;;;;;5.97;1.50;;;;;;;;;;4954179;29;20055;-76
2022/04/11 13:13:25;;;;;;;5.35;1.50;;;;;;;;;;4954864;29;20430;-77
2022/04/11 13:18:37;;;;;;;3.20;1.20;;;;;;;;;;4955012;28;20102;-76
2022/04/11 13:21:03;;;;;;;3.28;1.20;;;;;;;;;;4955146;28;20062;-76
2022/04/11 13:23:30;;;;;;;3.35;1.40;;;;;;;;;;4946322;29;20055;-76
2022/04/11 13:25:56;;;;;;;3.42;1.38;;;;;;;;;;4937081;29;20062;-76
2022/04/11 13:28:24;;;;;;;2.85;1.17;;;;;;;;;;4950981;28;20043;-76
2022/04/11 13:30:50;;;;;;;4.63;1.40;;;;;;;;;;4955319;28;20059;-76
2022/04/11 13:33:18;;;;;;;6.40;1.30;;;;;;;;;;4954909;29;20055;-75
2022/04/11 13:35:46;;;;;;;4.07;1.30;;;;;;;;;;4955819;29;20047;-76
2022/04/11 13:38:12;;;;;;;4.35;1.50;;;;;;;;;;4954368;29;20427;-76
2022/04/11 13:40:39;;;;;;;4.18;1.60;;;;;;;;;;4955738;29;20055;-76
2022/04/11 13:43:05;;;;;;;4.57;1.42;;;;;;;;;;4950011;29;20055;-76
2022/04/11 13:45:32;;;;;;;4.35;1.30;;;;;;;;;;4954995;29;20047;-76
2022/04/11 13:47:58;;;;;;;2.85;1.17;;;;;;;;;;4955477;29;20051;-76
2022/04/11 13:50:24;;;;;;;2.80;1.33;;;;;;;;;;4954651;28;20051;-76
2022/04/11 13:52:52;;;;;;;4.00;1.38;;;;;;;;;;4954219;29;20058;-76
2022/04/11 13:55:18;;;;;;;4.35;1.35;;;;;;;;;;4955088;29;20532;-76
2022/04/11 13:57:45;;;;;;;2.67;1.30;;;;;;;;;;4954016;29;20426;-76
2022/04/11 14:00:12;;;;;;;6.20;1.35;;;;;;;;;;4954197;28;20059;-76
2022/04/11 14:02:38;;;;;;;4.78;1.30;;;;;;;;;;4954817;28;20061;-76
2022/04/11 14:05:05;;;;;;;3.00;1.38;;;;;;;;;;4954316;28;20492;-76
2022/04/11 14:07:31;;;;;;;5.22;1.40;;;;;;;;;;4954901;29;20450;-76
2022/04/11 14:09:59;;;;;;;4.45;1.40;;;;;;;;;;4939985;28;20067;-76
2022/04/11 14:12:25;;;;;;;4.20;1.50;;;;;;;;;;4956800;29;20055;-77
2022/04/11 14:14:51;;;;;;;4.25;1.35;;;;;;;;;;4957788;29;20062;-77
2022/04/11 14:17:18;;;;;;;4.57;1.50;;;;;;;;;;4958141;29;20059;-78
2022/04/11 14:19:44;;;;;;;4.97;1.52;;;;;;;;;;4958011;28;20054;-77
2022/04/11 14:22:10;;;;;;;3.85;1.50;;;;;;;;;;4957643;29;20491;-77
2022/04/11 14:24:37;;;;;;;5.90;1.58;;;;;;;;;;4956430;29;20054;-77
2022/04/11 14:27:05;;;;;;;6.28;1.70;;;;;;;;;;4957350;29;20058;-77
2022/04/11 14:29:31;;;;;;;;;;;;;;;;;;4958763;28;20051;-77
2022/04/11 14:31:57;;;;;;;4.78;1.48;;;;;;;;;;4958705;28;19981;-77
2022/04/11 14:34:24;;;;;;;3.83;1.50;;;;;;;;;;4955557;29;20414;-77
2022/04/11 14:36:50;;;;;;;3.90;1.50;;;;;;;;;;4955964;29;20053;-77
2022/04/11 14:39:16;;;;;;;5.60;1.40;;;;;;;;;;4954429;28;20051;-77
2022/04/11 14:41:43;;;;;;;4.13;1.48;;;;;;;;;;4957254;28;20423;-77
2022/04/11 14:44:11;;;;;;;6.07;1.60;;;;;;;;;;4956482;28;20055;-77
2022/04/11 14:46:37;;;;;;;4.18;1.52;;;;;;;;;;4945215;29;20051;-77
2022/04/11 14:49:03;;;;;;;5.65;1.52;;;;;;;;;;4956978;28;20047;-77
2022/04/11 14:51:31;;;;;;;5.32;1.63;;;;;;;;;;4957526;29;20055;-77
2022/04/11 14:53:57;;;;;;;5.95;1.40;;;;;;;;;;4955987;29;20054;-77
2022/04/11 14:56:24;;;;;;;4.28;1.48;;;;;;;;;;4957103;29;20055;-77
2022/04/11 14:58:50;;;;;;;4.78;1.33;;;;;;;;;;4957495;28;20047;-77
2022/04/11 15:01:18;;;;;;;4.22;1.42;;;;;;;;;;4956324;28;20055;-77